KSDF

Louisville International-Standiford Field Airport

Louisville, Kentucky, USA
METAR KSDF 252056Z 22007KT 4SM -TSRA BKN036CB BKN060 BKN100 BKN160 27/22 A2997 RMK AO2 LTG DSNT ALQDS RAB34 TSB51 SLP144 OCNL LTGICCC W-N TSTM W MOV NE P0004 60004 T02670222 55016
Observed Flight Rules
Sep-25 @ 20:56 UTC (2 hours ago) Marginal Visual Flight Rules
Wind Visibility Clouds Conditions
220° at 7 knots 4 miles
  • Broken at 3,600' AGL
  • Broken at 6,000' AGL
  • Broken at 10,000' AGL
  • Broken at 16,000' AGL
  • Light Thunderstorm
  • Light Rain
Temperatures Readings Precipitation
Current 27°C / 81°F
Dewpoint 22°C / 72°F
Humidity 74%
Altimeter 29.97" Hg
Pressure 1014.4 hPa
Elevation 146
Current Rain 0.04
METAR KSDF 252056Z 22007KT 4SM -TSRA BKN036CB BKN060 BKN100 BKN160 27/22 A2997 RMK AO2 LTG DSNT ALQDS RAB34 TSB51 SLP144 OCNL LTGICCC W-N TSTM W MOV NE P0004 60004 T02670222 55016
Observed Flight Rules
Sep-25 @ 20:56 UTC
(2 hours ago)
MVFR
Wind Visibility
220° at 7 knots 4 miles
Clouds
  • Broken at 3,600' AGL
  • Broken at 6,000' AGL
  • Broken at 10,000' AGL
  • Broken at 16,000' AGL
Conditions
  • Light Thunderstorm
  • Light Rain
Temperature Dewpoint
27°C / 81°F 22°C / 72°F
Humidity Altimeter Pressure
74% 29.97" Hg 1014.4 hPa
Current Rain
0.04